createdAt,value
2019-02-12T00:00:10.439Z,95.22
2019-02-12T00:01:11.826Z,95.69
2019-02-12T00:02:13.208Z,95.41
2019-02-12T00:03:14.588Z,95.41
2019-02-12T00:04:15.968Z,95.69
2019-02-12T00:05:17.350Z,95.88
2019-02-12T00:06:18.734Z,96.26
2019-02-12T00:07:20.134Z,96.17
2019-02-12T00:08:21.509Z,96.92
2019-02-12T00:09:22.888Z,96.92
2019-02-12T00:10:24.268Z,96.73
2019-02-12T00:11:25.653Z,96.73
2019-02-12T00:12:27.039Z,96.73
2019-02-12T00:13:28.422Z,96.92
2019-02-12T00:14:29.806Z,96.83
2019-02-12T00:15:31.188Z,96.83
2019-02-12T00:16:32.573Z,97.11
2019-02-12T00:17:33.950Z,97.11
2019-02-12T00:18:35.334Z,97.16
2019-02-12T00:19:36.728Z,97.35
2019-02-12T00:20:38.106Z,96.97
2019-02-12T00:21:39.495Z,97.44
2019-02-12T00:22:40.878Z,97.92
2019-02-12T00:23:42.260Z,97.54
2019-02-12T00:24:43.644Z,98.20
2019-02-12T00:25:45.031Z,98.01
2019-02-12T00:26:46.423Z,97.73
2019-02-12T00:27:47.803Z,98.30
2019-02-12T00:28:49.189Z,98.77
2019-02-12T00:29:50.573Z,98.68
2019-02-12T00:30:51.959Z,98.49
2019-02-12T00:31:53.335Z,98.30
2019-02-12T00:32:54.734Z,99.15
2019-02-12T00:33:56.919Z,98.86
2019-02-12T00:34:58.308Z,98.77
2019-02-12T00:35:59.686Z,99.52
2019-02-12T00:37:01.071Z,99.29
2019-02-12T00:38:02.463Z,99.15
2019-02-12T00:39:03.880Z,99.15
2019-02-12T00:40:05.266Z,98.96
2019-02-12T00:41:06.645Z,98.91
2019-02-12T00:42:08.038Z,99.01
2019-02-12T00:43:09.421Z,99.29
2019-02-12T00:44:10.818Z,99.39
2019-02-12T00:45:12.206Z,98.86
2019-02-12T00:46:13.618Z,99.20
2019-02-12T00:47:15.010Z,99.10
2019-02-12T00:48:16.404Z,99.10
2019-02-12T00:49:17.789Z,99.01
2019-02-12T00:50:19.179Z,99.01
2019-02-12T00:51:20.565Z,99.01
2019-02-12T00:52:21.943Z,99.29
2019-02-12T00:53:23.329Z,99.10
2019-02-12T00:54:24.724Z,99.10
2019-02-12T00:55:26.105Z,99.10
2019-02-12T00:56:27.493Z,99.01
2019-02-12T00:57:28.867Z,99.10
2019-02-12T00:58:30.258Z,98.82
2019-02-12T00:59:31.640Z,98.82
2019-02-12T01:00:33.023Z,98.82
2019-02-12T01:01:34.416Z,99.01
2019-02-12T01:02:35.812Z,99.20
2019-02-12T01:03:37.197Z,99.10
2019-02-12T01:04:38.591Z,99.10
2019-02-12T01:05:39.977Z,98.82
2019-02-12T01:06:41.366Z,98.44
2019-02-12T01:07:42.769Z,98.63
2019-02-12T01:08:44.150Z,98.63
2019-02-12T01:09:45.558Z,98.72
2019-02-12T01:10:46.971Z,98.44
2019-02-12T01:11:48.324Z,97.78
2019-02-12T01:12:49.719Z,98.06
2019-02-12T01:13:51.095Z,98.25
2019-02-12T01:14:52.498Z,98.06
2019-02-12T01:15:53.889Z,98.16
2019-02-12T01:16:55.265Z,97.49
2019-02-12T01:17:56.675Z,97.97
2019-02-12T01:18:58.047Z,97.87
2019-02-12T01:19:59.425Z,98.16
2019-02-12T01:21:00.819Z,97.87
2019-02-12T01:22:02.193Z,97.97
2019-02-12T01:23:03.589Z,98.25
2019-02-12T01:24:04.981Z,97.78
2019-02-12T01:25:06.366Z,97.97
2019-02-12T01:26:07.760Z,97.87
2019-02-12T01:27:09.149Z,98.16
2019-02-12T01:28:10.534Z,98.06
2019-02-12T01:29:11.913Z,98.25
2019-02-12T01:30:13.302Z,98.25
2019-02-12T01:31:14.688Z,97.97
2019-02-12T01:32:16.076Z,98.16
2019-02-12T01:33:17.467Z,97.78
2019-02-12T01:34:18.854Z,97.87
2019-02-12T01:35:20.239Z,97.49
2019-02-12T01:36:21.620Z,97.68
2019-02-12T01:37:22.998Z,97.30
2019-02-12T01:38:24.384Z,97.49
2019-02-12T01:39:25.771Z,97.78
2019-02-12T01:40:27.170Z,97.78
2019-02-12T01:41:28.568Z,97.97
2019-02-12T01:42:29.983Z,97.49
2019-02-12T01:43:31.376Z,97.21
2019-02-12T01:44:32.764Z,97.11
2019-02-12T01:45:34.153Z,97.21
2019-02-12T01:46:35.535Z,97.30
2019-02-12T01:47:36.927Z,97.21
2019-02-12T01:48:38.318Z,97.02
2019-02-12T01:49:39.707Z,96.83
2019-02-12T01:50:41.095Z,97.02
2019-02-12T01:51:42.474Z,96.83
2019-02-12T01:52:43.863Z,96.17
2019-02-12T01:53:45.250Z,95.79
2019-02-12T01:54:46.649Z,95.88
2019-02-12T01:55:48.031Z,96.36
2019-02-12T01:56:49.424Z,96.26
2019-02-12T01:57:50.801Z,96.07
2019-02-12T01:58:52.188Z,95.98
2019-02-12T01:59:53.606Z,96.26
2019-02-12T02:00:54.997Z,96.26
2019-02-12T02:01:56.394Z,96.07
2019-02-12T02:02:57.780Z,95.65
2019-02-12T02:03:59.170Z,95.88
2019-02-12T02:05:00.552Z,96.45
2019-02-12T02:06:01.947Z,96.50
2019-02-12T02:07:03.373Z,96.41
2019-02-12T02:08:04.727Z,96.31
2019-02-12T02:09:06.130Z,96.22
2019-02-12T02:10:07.510Z,96.07
2019-02-12T07:10:45.877Z,99.99
2019-02-12T07:11:47.268Z,99.99
2019-02-12T07:12:48.654Z,99.99
2019-02-12T07:13:50.048Z,99.99
2019-02-12T07:14:51.439Z,99.99
2019-02-12T07:15:52.848Z,99.99
2019-02-12T07:16:54.296Z,99.99
2019-02-12T07:17:55.664Z,99.99
2019-02-12T07:18:57.058Z,99.99
2019-02-12T07:19:58.462Z,99.99
2019-02-12T07:20:59.890Z,99.99
2019-02-12T07:22:01.328Z,99.99
2019-02-12T07:23:02.732Z,99.99
2019-02-12T07:24:04.130Z,99.99
2019-02-12T07:25:05.536Z,99.99
2019-02-12T07:26:06.928Z,99.99
2019-02-12T07:27:08.350Z,99.99
2019-02-12T07:28:09.752Z,99.99
2019-02-12T07:29:11.145Z,99.99
2019-02-12T07:30:12.539Z,99.99
2019-02-12T07:31:14.009Z,99.99
2019-02-12T07:32:15.416Z,99.99
2019-02-12T07:33:16.824Z,99.99
2019-02-12T07:34:18.221Z,99.99
2019-02-12T07:35:19.629Z,99.99
2019-02-12T07:36:21.032Z,99.99
2019-02-12T07:37:22.419Z,99.99
2019-02-12T07:38:23.827Z,99.99
2019-02-12T17:47:26.275Z,77.61
2019-02-12T17:48:28.387Z,77.42
2019-02-12T17:49:29.769Z,77.51
2019-02-12T17:50:31.156Z,77.61
2019-02-12T17:51:32.541Z,77.89
2019-02-12T17:52:33.922Z,77.42
2019-02-12T17:53:35.324Z,77.99
2019-02-12T17:54:36.709Z,77.61
2019-02-12T17:55:38.126Z,77.99
2019-02-12T17:56:39.550Z,78.27
2019-02-12T17:57:40.963Z,78.27
2019-02-12T17:58:42.399Z,77.99
2019-02-12T17:59:43.845Z,78.27
2019-02-12T18:00:45.245Z,78.37
2019-02-12T18:01:46.652Z,78.37
2019-02-12T18:02:48.046Z,78.08
2019-02-12T18:03:49.432Z,78.18
2019-02-12T18:04:50.814Z,78.56
2019-02-12T18:05:52.205Z,79.13
2019-02-12T18:06:53.586Z,78.94
2019-02-12T18:07:54.984Z,78.88
2019-02-12T18:08:56.374Z,79.13
2019-02-12T18:09:57.776Z,78.85
2019-02-12T18:10:59.158Z,79.60
2019-02-12T18:12:00.545Z,79.41
2019-02-12T18:13:04.803Z,79.32
2019-02-12T18:14:06.182Z,79.32
2019-02-12T18:15:07.571Z,79.26
2019-02-12T18:16:08.952Z,79.64
2019-02-12T18:17:10.341Z,79.55
2019-02-12T18:18:11.718Z,80.02
2019-02-12T18:19:13.110Z,79.64
2019-02-12T18:20:14.529Z,79.45
2019-02-12T18:21:15.945Z,79.36
2019-02-12T18:22:17.358Z,79.64
2019-02-12T18:23:18.795Z,80.07
2019-02-12T18:24:20.145Z,80.21
2019-02-12T18:25:21.535Z,80.30
2019-02-12T18:26:22.919Z,80.40
2019-02-12T18:27:24.306Z,80.40
2019-02-12T18:28:25.779Z,80.49
2019-02-12T18:29:27.203Z,80.87
2019-02-12T18:30:28.588Z,80.68
2019-02-12T18:31:30.707Z,80.30
2019-02-12T18:32:32.102Z,81.06
2019-02-12T18:33:33.502Z,80.87
2019-02-12T18:34:34.912Z,80.87
2019-02-12T18:35:36.291Z,80.30
2019-02-12T18:36:37.669Z,80.49
2019-02-12T18:37:39.065Z,80.49
2019-02-12T18:38:40.462Z,80.68
2019-02-12T18:39:41.856Z,80.30
2019-02-12T18:40:43.244Z,80.30
2019-02-12T18:41:44.634Z,80.30
2019-02-12T18:42:46.039Z,80.30
2019-02-12T18:43:47.434Z,80.30
2019-02-12T18:44:48.821Z,80.40
2019-02-12T18:45:50.209Z,80.30
2019-02-12T18:46:51.608Z,80.58
2019-02-12T18:47:53.007Z,80.68
2019-02-12T18:48:54.396Z,80.58
2019-02-12T18:49:55.788Z,80.68
2019-02-12T18:50:57.187Z,80.58
2019-02-12T18:51:58.573Z,80.87
2019-02-12T18:52:59.962Z,80.30
2019-02-12T18:54:01.355Z,80.49
2019-02-12T18:55:02.767Z,79.93
2019-02-12T18:56:04.163Z,79.83
2019-02-12T18:57:05.583Z,79.93
2019-02-12T18:58:06.988Z,80.30
2019-02-12T18:59:08.379Z,80.21
2019-02-12T19:00:09.762Z,79.93
2019-02-12T19:01:11.165Z,79.93
2019-02-12T19:02:12.542Z,80.30
2019-02-12T19:03:13.966Z,80.30
2019-02-12T19:04:15.359Z,80.30
2019-02-12T19:05:16.750Z,79.83
2019-02-12T19:06:18.133Z,79.36
2019-02-12T19:07:19.518Z,78.88
2019-02-12T19:08:20.913Z,79.07
2019-02-12T19:09:22.308Z,79.17
2019-02-12T19:10:23.698Z,78.98
2019-02-12T19:11:25.081Z,78.59
2019-02-12T19:12:26.467Z,78.69
2019-02-12T19:13:27.860Z,78.69
2019-02-12T19:14:29.253Z,78.31
2019-02-12T19:15:30.631Z,78.79
2019-02-12T19:16:32.015Z,78.41
2019-02-12T19:17:33.412Z,78.88
2019-02-12T19:18:34.796Z,79.45
2019-02-12T19:19:36.185Z,79.45
2019-02-12T19:20:38.501Z,79.17
2019-02-12T19:21:39.897Z,79.26
2019-02-12T19:22:41.305Z,79.45
2019-02-12T19:23:42.703Z,79.17
2019-02-12T19:24:44.086Z,79.26
2019-02-12T19:25:45.473Z,79.64
2019-02-12T19:26:49.938Z,79.64
2019-02-12T19:27:48.267Z,79.45
2019-02-12T19:28:50.185Z,79.07
2019-02-12T19:29:51.034Z,79.45
2019-02-12T19:30:52.434Z,78.88
2019-02-12T19:31:59.116Z,79.07
2019-02-12T19:32:55.229Z,79.17
2019-02-12T19:33:56.629Z,79.26
2019-02-12T19:34:58.030Z,78.88
2019-02-12T19:36:00.032Z,78.98
2019-02-12T19:37:01.436Z,78.88
2019-02-12T19:38:02.844Z,79.36
2019-02-12T19:39:04.258Z,79.36
2019-02-12T19:40:05.655Z,79.36
2019-02-12T19:41:07.054Z,79.45
2019-02-12T19:42:08.467Z,79.36
2019-02-12T19:43:09.861Z,79.26
2019-02-12T19:44:11.265Z,78.98
2019-02-12T19:45:12.679Z,79.17
2019-02-12T19:46:14.074Z,78.98
2019-02-12T19:47:15.515Z,78.69
2019-02-12T19:48:16.918Z,78.79
2019-02-12T19:49:18.341Z,78.98
2019-02-12T19:50:19.732Z,78.79
2019-02-12T19:51:21.125Z,78.50
2019-02-12T19:52:23.503Z,78.50
2019-02-12T19:53:24.957Z,78.50
2019-02-12T19:54:26.361Z,78.12
2019-02-12T19:55:27.790Z,78.12
2019-02-12T19:56:29.214Z,78.41
2019-02-12T19:57:31.589Z,78.22
2019-02-12T19:58:33.019Z,78.41
2019-02-12T19:59:35.316Z,78.31
2019-02-12T20:00:37.639Z,78.22
2019-02-12T20:01:39.052Z,78.03
2019-02-12T20:02:41.323Z,78.12
2019-02-12T20:03:42.730Z,78.12
2019-02-12T20:04:44.142Z,77.84
2019-02-12T20:05:46.418Z,77.75
2019-02-12T20:06:48.762Z,78.31
2019-02-12T20:07:50.646Z,78.22
2019-02-12T20:08:51.568Z,78.12
2019-02-12T20:09:53.003Z,78.03
2019-02-12T20:10:54.421Z,78.03
2019-02-12T20:11:56.602Z,78.50
2019-02-12T20:12:57.994Z,78.12
2019-02-12T20:13:59.419Z,78.03
2019-02-12T20:15:00.822Z,78.22
2019-02-12T20:16:02.241Z,77.94
2019-02-12T20:17:03.698Z,78.16
2019-02-12T20:18:05.094Z,77.94
2019-02-12T20:19:06.511Z,78.16
2019-02-12T20:20:07.913Z,78.03
2019-02-12T20:21:10.272Z,78.69
2019-02-12T20:22:11.672Z,77.94
2019-02-12T20:23:13.086Z,78.03
2019-02-12T20:24:14.489Z,78.03
2019-02-12T20:25:15.916Z,78.16
2019-02-12T20:26:17.375Z,78.35
2019-02-12T20:27:18.769Z,78.45
2019-02-12T20:28:20.173Z,78.16
2019-02-12T20:29:21.584Z,78.26
2019-02-12T20:30:22.979Z,78.22
2019-02-12T20:31:24.378Z,78.41
2019-02-12T20:32:25.774Z,78.22
2019-02-12T20:33:27.173Z,78.64
2019-02-12T20:34:28.578Z,78.69
2019-02-12T20:35:36.273Z,79.11
2019-02-12T20:36:31.362Z,79.02
2019-02-12T20:37:32.778Z,79.02
2019-02-12T20:38:34.784Z,79.11
2019-02-12T20:39:36.196Z,79.49
2019-02-12T20:40:37.586Z,79.39
2019-02-12T20:41:39.014Z,79.39
2019-02-12T20:42:40.434Z,79.30
2019-02-12T20:43:41.817Z,79.30
2019-02-12T20:44:43.246Z,79.39
2019-02-12T20:45:44.656Z,79.30
2019-02-12T20:46:46.074Z,79.58
2019-02-12T20:47:47.476Z,79.87
2019-02-12T20:48:49.423Z,79.96
2019-02-12T20:49:50.801Z,80.06
2019-02-12T20:50:52.222Z,79.87
2019-02-12T20:51:53.615Z,80.06
2019-02-12T20:52:55.003Z,79.96
2019-02-12T20:53:56.402Z,80.15
2019-02-12T20:54:57.824Z,80.44
2019-02-12T20:55:59.218Z,80.34
2019-02-12T20:57:00.610Z,80.63
2019-02-12T20:58:02.018Z,80.82
2019-02-12T20:59:03.396Z,81.01
2019-02-12T21:00:04.812Z,80.82
2019-02-12T21:01:06.196Z,81.20
2019-02-12T21:02:07.580Z,81.67
2019-02-12T21:03:08.993Z,81.86
2019-02-12T21:04:10.415Z,81.76
2019-02-12T21:05:11.814Z,82.14
2019-02-12T21:06:13.251Z,82.52
2019-02-12T21:07:14.636Z,82.43
2019-02-12T21:08:16.039Z,82.52
2019-02-12T21:09:17.451Z,82.24
2019-02-12T21:10:18.831Z,82.24
2019-02-12T21:11:20.227Z,82.24
2019-02-12T21:12:21.627Z,82.24
2019-02-12T21:13:23.027Z,82.24
2019-02-12T21:14:24.407Z,82.43
2019-02-12T21:15:25.798Z,82.52
2019-02-12T21:16:27.223Z,82.33
2019-02-12T21:17:28.661Z,82.24
2019-02-12T21:18:30.038Z,82.62
2019-02-12T21:19:31.457Z,82.33
2019-02-12T21:20:32.851Z,82.71
2019-02-12T21:21:34.244Z,82.81
2019-02-12T21:22:35.634Z,83.18
2019-02-12T21:23:37.022Z,82.81
2019-02-12T21:24:38.427Z,82.71
2019-02-12T21:25:39.821Z,82.62
2019-02-12T21:26:41.204Z,82.81
2019-02-12T21:27:42.586Z,83.00
2019-02-12T21:28:43.978Z,83.37
2019-02-12T21:29:45.364Z,83.18
2019-02-12T21:30:46.745Z,82.90
2019-02-12T21:31:48.138Z,83.09
2019-02-12T21:32:49.526Z,83.37
2019-02-12T21:33:50.915Z,83.37
2019-02-12T21:34:52.315Z,84.04
2019-02-12T21:35:53.740Z,84.23
2019-02-12T21:36:55.123Z,84.32
2019-02-12T21:37:56.521Z,84.23
2019-02-12T21:38:57.914Z,84.32
2019-02-12T21:39:59.302Z,84.80
2019-02-12T21:41:00.717Z,84.70
2019-02-12T21:42:02.084Z,84.89
2019-02-12T21:43:03.467Z,85.17
2019-02-12T21:44:04.854Z,85.17
2019-02-12T21:45:06.249Z,85.17
2019-02-12T21:46:07.658Z,85.36
2019-02-12T21:47:09.065Z,85.08
2019-02-12T21:48:10.455Z,85.55
2019-02-12T21:49:11.844Z,85.74
2019-02-12T21:50:13.232Z,85.84
2019-02-12T21:51:14.623Z,85.84
2019-02-12T21:52:16.016Z,86.22
2019-02-12T21:53:17.419Z,86.31
2019-02-12T21:54:18.802Z,86.41
2019-02-12T21:55:20.196Z,86.03
2019-02-12T21:56:21.580Z,86.31
2019-02-12T21:57:22.976Z,86.98
2019-02-12T21:58:24.366Z,86.69
2019-02-12T21:59:25.766Z,87.35
2019-02-12T22:00:27.151Z,86.41
2019-02-12T22:01:28.532Z,86.50
2019-02-12T22:02:29.929Z,86.88
2019-02-12T22:03:31.314Z,87.45
2019-02-12T22:04:32.731Z,87.35
2019-02-12T22:05:34.108Z,87.45
2019-02-12T22:06:35.531Z,87.73
2019-02-12T22:07:36.919Z,87.35
2019-02-12T22:08:38.298Z,87.64
2019-02-12T22:09:39.691Z,87.92
2019-02-12T22:10:46.184Z,88.49
2019-02-12T22:11:42.449Z,88.40
2019-02-12T22:12:43.843Z,88.30
2019-02-12T22:13:45.235Z,88.49
2019-02-12T22:14:46.633Z,88.49
2019-02-12T22:15:48.040Z,88.96
2019-02-12T22:16:49.413Z,88.87
2019-02-12T22:17:50.809Z,89.06
2019-02-12T22:18:52.201Z,89.06
2019-02-12T22:19:53.599Z,90.10
2019-02-12T22:20:55.005Z,89.91
2019-02-12T22:21:56.397Z,90.77
2019-02-12T22:22:57.797Z,90.86
2019-02-12T22:23:59.204Z,91.33
2019-02-12T22:25:00.590Z,91.09
2019-02-12T22:26:01.984Z,91.38
2019-02-12T22:27:03.374Z,91.43
2019-02-12T22:28:04.758Z,91.38
2019-02-12T22:29:06.405Z,93.18
2019-02-12T22:30:07.490Z,93.37
2019-02-12T22:31:08.881Z,92.99
2019-02-12T22:32:10.277Z,93.37
2019-02-12T22:33:11.656Z,93.56
2019-02-12T22:34:13.047Z,94.04
2019-02-12T22:35:14.687Z,94.13
2019-02-12T22:36:15.798Z,94.70
2019-02-12T22:37:17.188Z,95.07
2019-02-12T22:38:18.569Z,94.70
2019-02-12T22:39:19.959Z,94.79
2019-02-12T22:40:21.347Z,95.26
2019-02-12T22:41:22.741Z,95.65
2019-02-12T22:42:24.135Z,95.84
2019-02-12T22:43:25.523Z,95.65
2019-02-12T22:44:26.909Z,96.22
2019-02-12T22:45:28.307Z,97.64
2019-02-12T22:46:29.695Z,98.77
2019-02-12T22:47:31.078Z,99.63
2019-02-12T22:48:32.467Z,99.67
2019-02-12T22:49:33.855Z,99.99
2019-02-12T22:50:35.246Z,99.99
2019-02-12T22:51:36.630Z,99.99
2019-02-12T22:52:38.019Z,99.99
2019-02-12T22:53:39.420Z,99.99
2019-02-12T22:54:40.806Z,99.99
2019-02-12T22:55:42.197Z,99.99
2019-02-12T22:56:43.594Z,99.99
2019-02-12T22:57:49.182Z,99.99
2019-02-12T22:58:46.340Z,99.99
2019-02-12T22:59:47.739Z,99.99
2019-02-12T23:00:49.136Z,99.99
2019-02-12T23:01:50.514Z,99.99
2019-02-12T23:02:51.907Z,99.99
2019-02-12T23:03:53.298Z,99.99
2019-02-12T23:04:54.686Z,99.99
2019-02-12T23:05:56.071Z,99.99
2019-02-12T23:06:57.448Z,99.99
2019-02-12T23:07:58.845Z,99.99
2019-02-12T23:09:00.235Z,99.99
2019-02-12T23:10:01.613Z,99.99
2019-02-12T23:11:02.999Z,99.99
2019-02-12T23:12:04.388Z,99.99
2019-02-12T23:13:05.776Z,99.99
2019-02-12T23:14:07.165Z,99.99
2019-02-12T23:15:08.599Z,99.99
2019-02-12T23:16:09.929Z,99.99
2019-02-12T23:17:11.321Z,99.99
2019-02-12T23:18:12.733Z,99.99
2019-02-12T23:19:14.122Z,99.99
2019-02-12T23:20:15.510Z,99.99
2019-02-12T23:21:16.894Z,99.99
2019-02-12T23:22:18.294Z,99.99
2019-02-12T23:23:19.682Z,99.99
2019-02-12T23:24:21.063Z,99.99
2019-02-12T23:25:22.450Z,99.99
2019-02-12T23:26:23.844Z,99.99
2019-02-12T23:27:25.224Z,99.99
2019-02-12T23:28:26.613Z,99.99
2019-02-12T23:29:28.002Z,99.99
2019-02-12T23:30:29.409Z,99.99
2019-02-12T23:31:30.792Z,99.99
2019-02-12T23:32:32.180Z,99.99
2019-02-12T23:33:33.574Z,99.99
2019-02-12T23:34:34.970Z,99.99
2019-02-12T23:35:36.354Z,99.99
2019-02-12T23:36:37.745Z,99.99
2019-02-12T23:37:39.122Z,99.99
2019-02-12T23:38:40.519Z,99.99
2019-02-12T23:39:41.923Z,99.99
2019-02-12T23:40:43.298Z,99.99
2019-02-12T23:41:44.692Z,99.99
2019-02-12T23:42:46.071Z,99.99
2019-02-12T23:43:47.458Z,99.99
2019-02-12T23:44:48.844Z,99.99
2019-02-12T23:45:50.231Z,99.99
2019-02-12T23:46:51.625Z,99.99
2019-02-12T23:47:53.014Z,99.99
2019-02-12T23:48:54.400Z,99.99
2019-02-12T23:49:55.796Z,99.99
2019-02-12T23:50:57.190Z,99.99
2019-02-12T23:51:58.579Z,99.99
2019-02-12T23:53:00.558Z,99.99
2019-02-12T23:54:01.931Z,99.99
2019-02-12T23:55:03.326Z,99.99
2019-02-12T23:56:04.722Z,99.99
2019-02-12T23:57:06.105Z,99.99
2019-02-12T23:58:07.487Z,99.99
2019-02-12T23:59:08.865Z,99.99
